sensor_id;sensor_type;location;lat;lon;timestamp;pressure;altitude;pressure_sealevel;temperature;humidity
71770;BME280;66386;52.122;5.420;2023-02-14T00:00:26;103633.44;;;1.38;89.88
71770;BME280;66386;52.122;5.420;2023-02-14T00:02:52;103632.53;;;1.36;89.93
71770;BME280;66386;52.122;5.420;2023-02-14T00:05:19;103641.63;;;1.32;89.78
71770;BME280;66386;52.122;5.420;2023-02-14T00:07:46;103636.44;;;1.29;90.22
71770;BME280;66386;52.122;5.420;2023-02-14T00:10:12;103636.28;;;1.26;90.29
71770;BME280;66386;52.122;5.420;2023-02-14T00:12:39;103633.75;;;1.26;90.15
71770;BME280;66386;52.122;5.420;2023-02-14T00:15:05;103632.78;;;1.24;90.21
71770;BME280;66386;52.122;5.420;2023-02-14T00:17:52;103632.78;;;1.24;90.16
71770;BME280;66386;52.122;5.420;2023-02-14T00:20:23;103627.59;;;1.21;90.12
71770;BME280;66386;52.122;5.420;2023-02-14T00:22:49;103634.19;;;1.17;90.09
71770;BME280;66386;52.122;5.420;2023-02-14T00:25:16;103632.44;;;1.16;90.06
71770;BME280;66386;52.122;5.420;2023-02-14T00:27:43;103632.16;;;1.10;90.00
71770;BME280;66386;52.122;5.420;2023-02-14T00:30:12;103627.81;;;1.08;90.09
71770;BME280;66386;52.122;5.420;2023-02-14T00:32:39;103626.88;;;1.06;90.12
71770;BME280;66386;52.122;5.420;2023-02-14T00:35:07;103624.13;;;1.01;90.07
71770;BME280;66386;52.122;5.420;2023-02-14T00:37:34;103624.84;;;0.98;89.85
71770;BME280;66386;52.122;5.420;2023-02-14T00:40:01;103623.81;;;0.95;90.13
71770;BME280;66386;52.122;5.420;2023-02-14T00:42:27;103621.13;;;0.92;90.07
71770;BME280;66386;52.122;5.420;2023-02-14T00:44:54;103617.59;;;0.88;90.05
71770;BME280;66386;52.122;5.420;2023-02-14T00:47:20;103619.16;;;0.86;90.31
71770;BME280;66386;52.122;5.420;2023-02-14T00:49:47;103621.56;;;0.83;90.20
71770;BME280;66386;52.122;5.420;2023-02-14T00:52:13;103618.03;;;0.79;90.14
71770;BME280;66386;52.122;5.420;2023-02-14T00:54:40;103626.97;;;0.73;90.13
71770;BME280;66386;52.122;5.420;2023-02-14T00:57:06;103624.94;;;0.65;90.10
71770;BME280;66386;52.122;5.420;2023-02-14T00:59:32;103627.16;;;0.59;90.08
71770;BME280;66386;52.122;5.420;2023-02-14T01:01:59;103610.16;;;0.57;90.19
71770;BME280;66386;52.122;5.420;2023-02-14T01:04:25;103605.91;;;0.56;90.42
71770;BME280;66386;52.122;5.420;2023-02-14T01:06:52;103614.28;;;0.55;90.35
71770;BME280;66386;52.122;5.420;2023-02-14T01:09:18;103620.91;;;0.52;90.17
71770;BME280;66386;52.122;5.420;2023-02-14T01:11:45;103616.38;;;0.45;90.50
71770;BME280;66386;52.122;5.420;2023-02-14T01:14:11;103614.56;;;0.43;90.52
71770;BME280;66386;52.122;5.420;2023-02-14T01:16:38;103605.91;;;0.39;90.55
71770;BME280;66386;52.122;5.420;2023-02-14T01:19:04;103609.19;;;0.37;90.71
71770;BME280;66386;52.122;5.420;2023-02-14T01:21:32;103600.78;;;0.38;90.74
71770;BME280;66386;52.122;5.420;2023-02-14T01:24:02;103599.16;;;0.38;90.95
71770;BME280;66386;52.122;5.420;2023-02-14T01:26:29;103603.25;;;0.36;90.88
71770;BME280;66386;52.122;5.420;2023-02-14T01:28:56;103602.47;;;0.37;91.08
71770;BME280;66386;52.122;5.420;2023-02-14T01:31:25;103607.38;;;0.34;91.10
71770;BME280;66386;52.122;5.420;2023-02-14T01:33:52;103597.09;;;0.31;91.16
71770;BME280;66386;52.122;5.420;2023-02-14T01:36:20;103598.03;;;0.33;91.42
71770;BME280;66386;52.122;5.420;2023-02-14T01:38:50;103598.81;;;0.32;91.27
71770;BME280;66386;52.122;5.420;2023-02-14T01:41:17;103603.00;;;0.31;91.46
71770;BME280;66386;52.122;5.420;2023-02-14T01:46:24;103597.03;;;0.29;91.41
71770;BME280;66386;52.122;5.420;2023-02-14T01:48:53;103596.22;;;0.30;91.38
71770;BME280;66386;52.122;5.420;2023-02-14T01:51:21;103595.44;;;0.31;91.37
71770;BME280;66386;52.122;5.420;2023-02-14T01:53:49;103594.56;;;0.31;91.39
71770;BME280;66386;52.122;5.420;2023-02-14T01:56:22;103597.09;;;0.31;91.52
71770;BME280;66386;52.122;5.420;2023-02-14T01:58:52;103595.34;;;0.30;91.39
71770;BME280;66386;52.122;5.420;2023-02-14T02:01:21;103593.53;;;0.27;91.64
71770;BME280;66386;52.122;5.420;2023-02-14T02:03:54;103599.56;;;0.29;91.49
71770;BME280;66386;52.122;5.420;2023-02-14T02:06:26;103588.53;;;0.29;91.57
71770;BME280;66386;52.122;5.420;2023-02-14T02:09:12;103591.06;;;0.29;91.88
71770;BME280;66386;52.122;5.420;2023-02-14T02:11:41;103595.19;;;0.27;91.94
71770;BME280;66386;52.122;5.420;2023-02-14T02:14:19;103592.59;;;0.25;91.55
71770;BME280;66386;52.122;5.420;2023-02-14T02:17:02;103594.97;;;0.22;91.60
71770;BME280;66386;52.122;5.420;2023-02-14T02:19:42;103594.91;;;0.21;91.89
71770;BME280;66386;52.122;5.420;2023-02-14T02:27:45;103593.94;;;0.19;92.00
71770;BME280;66386;52.122;5.420;2023-02-14T02:44:06;103583.44;;;0.11;92.06
71770;BME280;66386;52.122;5.420;2023-02-14T02:52:55;103584.38;;;0.13;92.15
71770;BME280;66386;52.122;5.420;2023-02-14T02:55:56;103582.00;;;0.16;92.33
71770;BME280;66386;52.122;5.420;2023-02-14T02:58:45;103570.31;;;0.18;92.33
71770;BME280;66386;52.122;5.420;2023-02-14T03:01:18;103577.13;;;0.19;92.38
71770;BME280;66386;52.122;5.420;2023-02-14T03:03:49;103573.06;;;0.23;92.42
71770;BME280;66386;52.122;5.420;2023-02-14T03:06:37;103572.22;;;0.22;92.42
71770;BME280;66386;52.122;5.420;2023-02-14T03:17:45;103568.00;;;0.23;92.39
71770;BME280;66386;52.122;5.420;2023-02-14T03:23:24;103559.41;;;0.19;92.50
71770;BME280;66386;52.122;5.420;2023-02-14T03:28:37;103562.66;;;0.16;92.67
71770;BME280;66386;52.122;5.420;2023-02-14T03:31:26;103557.50;;;0.15;92.81
71770;BME280;66386;52.122;5.420;2023-02-14T03:34:01;103559.22;;;0.16;92.69
71770;BME280;66386;52.122;5.420;2023-02-14T03:36:47;103569.34;;;0.16;92.83
71770;BME280;66386;52.122;5.420;2023-02-14T03:39:26;103554.84;;;0.12;92.88
71770;BME280;66386;52.122;5.420;2023-02-14T03:42:00;103558.28;;;0.14;92.77
71770;BME280;66386;52.122;5.420;2023-02-14T03:44:32;103558.28;;;0.14;92.92
71770;BME280;66386;52.122;5.420;2023-02-14T03:47:02;103557.44;;;0.13;92.79
71770;BME280;66386;52.122;5.420;2023-02-14T03:49:35;103566.50;;;0.10;92.76
71770;BME280;66386;52.122;5.420;2023-02-14T03:52:03;103556.31;;;0.08;92.69
71770;BME280;66386;52.122;5.420;2023-02-14T03:54:31;103557.84;;;0.05;92.65
71770;BME280;66386;52.122;5.420;2023-02-14T03:57:06;103546.75;;;0.03;93.00
71770;BME280;66386;52.122;5.420;2023-02-14T03:59:34;103549.28;;;0.03;93.05
71770;BME280;66386;52.122;5.420;2023-02-14T04:02:25;103558.47;;;0.01;93.00
71770;BME280;66386;52.122;5.420;2023-02-14T04:04:53;103560.13;;;0.00;93.11
71770;BME280;66386;52.122;5.420;2023-02-14T04:07:22;103557.50;;;-0.02;93.04
71770;BME280;66386;52.122;5.420;2023-02-14T04:09:49;103553.97;;;-0.05;93.16
71770;BME280;66386;52.122;5.420;2023-02-14T04:12:17;103550.50;;;-0.07;93.25
71770;BME280;66386;52.122;5.420;2023-02-14T04:14:57;103555.38;;;-0.10;93.09
71770;BME280;66386;52.122;5.420;2023-02-14T04:17:24;103548.44;;;-0.14;93.31
71770;BME280;66386;52.122;5.420;2023-02-14T04:20:09;103556.75;;;-0.17;93.02
71770;BME280;66386;52.122;5.420;2023-02-14T04:22:36;103557.59;;;-0.16;93.28
71770;BME280;66386;52.122;5.420;2023-02-14T04:25:02;103561.63;;;-0.20;93.19
71770;BME280;66386;52.122;5.420;2023-02-14T04:27:29;103554.69;;;-0.24;93.16
71770;BME280;66386;52.122;5.420;2023-02-14T04:29:56;103556.28;;;-0.26;93.05
71770;BME280;66386;52.122;5.420;2023-02-14T04:32:22;103557.06;;;-0.27;93.11
71770;BME280;66386;52.122;5.420;2023-02-14T04:34:48;103558.63;;;-0.29;93.03
71770;BME280;66386;52.122;5.420;2023-02-14T04:37:17;103557.59;;;-0.33;92.98
71770;BME280;66386;52.122;5.420;2023-02-14T04:39:44;103557.38;;;-0.38;92.97
71770;BME280;66386;52.122;5.420;2023-02-14T04:42:11;103559.81;;;-0.39;92.98
71770;BME280;66386;52.122;5.420;2023-02-14T04:44:37;103553.78;;;-0.41;93.16
71770;BME280;66386;52.122;5.420;2023-02-14T04:47:04;103553.72;;;-0.43;92.92
71770;BME280;66386;52.122;5.420;2023-02-14T04:49:31;103547.72;;;-0.45;93.12
71770;BME280;66386;52.122;5.420;2023-02-14T04:51:58;103552.63;;;-0.48;93.15
71770;BME280;66386;52.122;5.420;2023-02-14T04:54:24;103550.00;;;-0.49;92.92
71770;BME280;66386;52.122;5.420;2023-02-14T04:56:51;103554.97;;;-0.51;92.77
71770;BME280;66386;52.122;5.420;2023-02-14T04:59:17;103556.47;;;-0.55;92.60
71770;BME280;66386;52.122;5.420;2023-02-14T05:01:44;103552.91;;;-0.58;92.59
71770;BME280;66386;52.122;5.420;2023-02-14T05:04:10;103546.91;;;-0.60;92.68
71770;BME280;66386;52.122;5.420;2023-02-14T05:06:37;103551.00;;;-0.62;92.62
71770;BME280;66386;52.122;5.420;2023-02-14T05:09:03;103551.72;;;-0.65;92.77
71770;BME280;66386;52.122;5.420;2023-02-14T05:11:30;103544.06;;;-0.66;92.57
71770;BME280;66386;52.122;5.420;2023-02-14T05:13:56;103543.88;;;-0.69;92.60
71770;BME280;66386;52.122;5.420;2023-02-14T05:16:23;103544.50;;;-0.74;92.39
71770;BME280;66386;52.122;5.420;2023-02-14T05:18:50;103542.06;;;-0.72;92.51
71770;BME280;66386;52.122;5.420;2023-02-14T05:21:17;103540.31;;;-0.73;92.45
71770;BME280;66386;52.122;5.420;2023-02-14T05:23:43;103537.63;;;-0.76;92.69
71770;BME280;66386;52.122;5.420;2023-02-14T05:26:10;103540.97;;;-0.77;92.24
71770;BME280;66386;52.122;5.420;2023-02-14T05:28:36;103542.69;;;-0.76;92.51
71770;BME280;66386;52.122;5.420;2023-02-14T05:31:06;103543.56;;;-0.76;92.50
71770;BME280;66386;52.122;5.420;2023-02-14T05:33:33;103540.22;;;-0.75;92.62
71770;BME280;66386;52.122;5.420;2023-02-14T05:36:00;103543.50;;;-0.77;92.50
71770;BME280;66386;52.122;5.420;2023-02-14T05:38:29;103538.34;;;-0.79;92.62
71770;BME280;66386;52.122;5.420;2023-02-14T05:40:55;103538.28;;;-0.80;92.50
71770;BME280;66386;52.122;5.420;2023-02-14T05:43:22;103537.31;;;-0.82;92.57
71770;BME280;66386;52.122;5.420;2023-02-14T05:45:48;103535.75;;;-0.80;92.66
71770;BME280;66386;52.122;5.420;2023-02-14T05:48:15;103535.75;;;-0.80;92.79
71770;BME280;66386;52.122;5.420;2023-02-14T05:50:41;103538.34;;;-0.79;92.70
71770;BME280;66386;52.122;5.420;2023-02-14T05:53:08;103533.22;;;-0.80;92.53
71770;BME280;66386;52.122;5.420;2023-02-14T05:55:34;103539.84;;;-0.82;92.59
71770;BME280;66386;52.122;5.420;2023-02-14T05:58:01;103534.63;;;-0.85;92.41
71770;BME280;66386;52.122;5.420;2023-02-14T06:00:28;103540.44;;;-0.86;92.56
71770;BME280;66386;52.122;5.420;2023-02-14T06:02:54;103541.34;;;-0.86;92.43
71770;BME280;66386;52.122;5.420;2023-02-14T06:05:21;103538.81;;;-0.86;92.49
71770;BME280;66386;52.122;5.420;2023-02-14T06:07:48;103529.50;;;-0.87;92.54
71770;BME280;66386;52.122;5.420;2023-02-14T06:10:22;103533.59;;;-0.89;92.59
71770;BME280;66386;52.122;5.420;2023-02-14T06:12:51;103526.88;;;-0.89;92.56
71770;BME280;66386;52.122;5.420;2023-02-14T06:15:19;103527.75;;;-0.88;92.68
71770;BME280;66386;52.122;5.420;2023-02-14T06:17:55;103534.47;;;-0.89;92.54
71770;BME280;66386;52.122;5.420;2023-02-14T06:20:23;103531.06;;;-0.89;92.74
71770;BME280;66386;52.122;5.420;2023-02-14T06:22:50;103542.03;;;-0.89;92.68
71770;BME280;66386;52.122;5.420;2023-02-14T06:25:16;103542.03;;;-0.89;92.81
71770;BME280;66386;52.122;5.420;2023-02-14T06:27:43;103539.44;;;-0.90;92.64
71770;BME280;66386;52.122;5.420;2023-02-14T06:30:10;103543.59;;;-0.91;92.61
71770;BME280;66386;52.122;5.420;2023-02-14T06:32:37;103552.06;;;-0.90;92.76
71770;BME280;66386;52.122;5.420;2023-02-14T06:35:04;103547.78;;;-0.91;92.78
71770;BME280;66386;52.122;5.420;2023-02-14T06:37:30;103544.47;;;-0.90;92.73
71770;BME280;66386;52.122;5.420;2023-02-14T06:39:57;103546.03;;;-0.92;92.87
71770;BME280;66386;52.122;5.420;2023-02-14T06:42:24;103551.06;;;-0.92;92.83
71770;BME280;66386;52.122;5.420;2023-02-14T06:44:50;103550.13;;;-0.94;92.73
71770;BME280;66386;52.122;5.420;2023-02-14T06:47:17;103554.06;;;-0.99;92.86
71770;BME280;66386;52.122;5.420;2023-02-14T06:49:43;103545.63;;;-1.00;93.07
71770;BME280;66386;52.122;5.420;2023-02-14T06:52:10;103555.81;;;-0.98;93.25
71770;BME280;66386;52.122;5.420;2023-02-14T06:54:36;103545.69;;;-0.98;93.12
71770;BME280;66386;52.122;5.420;2023-02-14T06:57:03;103550.66;;;-1.00;93.10
71770;BME280;66386;52.122;5.420;2023-02-14T06:59:29;103543.94;;;-0.99;93.42
71770;BME280;66386;52.122;5.420;2023-02-14T07:01:56;103547.28;;;-1.00;93.09
71770;BME280;66386;52.122;5.420;2023-02-14T07:04:22;103541.34;;;-1.01;93.04
71770;BME280;66386;52.122;5.420;2023-02-14T07:06:49;103551.44;;;-1.01;93.45
71770;BME280;66386;52.122;5.420;2023-02-14T07:09:15;103538.03;;;-1.00;92.86
71770;BME280;66386;52.122;5.420;2023-02-14T07:11:44;103547.38;;;-0.99;93.22
71770;BME280;66386;52.122;5.420;2023-02-14T07:14:11;103543.94;;;-0.99;93.17
71770;BME280;66386;52.122;5.420;2023-02-14T07:16:38;103543.94;;;-0.99;93.28
71770;BME280;66386;52.122;5.420;2023-02-14T07:19:04;103547.19;;;-1.02;93.28
71770;BME280;66386;52.122;5.420;2023-02-14T07:21:31;103544.69;;;-1.02;93.46
71770;BME280;66386;52.122;5.420;2023-02-14T07:23:57;103540.50;;;-1.01;93.39
71770;BME280;66386;52.122;5.420;2023-02-14T07:26:24;103547.13;;;-1.03;93.35
71770;BME280;66386;52.122;5.420;2023-02-14T07:28:50;103544.69;;;-1.02;93.38
71770;BME280;66386;52.122;5.420;2023-02-14T07:31:18;103545.53;;;-1.01;93.31
71770;BME280;66386;52.122;5.420;2023-02-14T07:33:46;103541.34;;;-1.01;93.67
71770;BME280;66386;52.122;5.420;2023-02-14T07:36:12;103552.41;;;-0.99;93.38
71770;BME280;66386;52.122;5.420;2023-02-14T07:38:39;103549.97;;;-0.97;93.54
71770;BME280;66386;52.122;5.420;2023-02-14T07:41:05;103550.22;;;-0.93;93.58
71770;BME280;66386;52.122;5.420;2023-02-14T07:43:32;103558.72;;;-0.91;93.42
71770;BME280;66386;52.122;5.420;2023-02-14T07:46:02;103553.88;;;-0.88;93.40
71770;BME280;66386;52.122;5.420;2023-02-14T07:48:28;103557.34;;;-0.85;93.52
71770;BME280;66386;52.122;5.420;2023-02-14T07:50:58;103556.81;;;-0.80;93.57
71770;BME280;66386;52.122;5.420;2023-02-14T07:53:25;103558.06;;;-0.72;93.86
71770;BME280;66386;52.122;5.420;2023-02-14T07:55:52;103559.44;;;-0.62;94.00
71770;BME280;66386;52.122;5.420;2023-02-14T07:58:19;103559.69;;;-0.57;94.15
71770;BME280;66386;52.122;5.420;2023-02-14T08:00:45;103560.13;;;-0.49;94.02
71770;BME280;66386;52.122;5.420;2023-02-14T08:03:12;103554.59;;;-0.42;94.13
71770;BME280;66386;52.122;5.420;2023-02-14T08:05:39;103543.28;;;-0.32;94.21
71770;BME280;66386;52.122;5.420;2023-02-14T08:08:06;103547.97;;;-0.24;94.18
71770;BME280;66386;52.122;5.420;2023-02-14T08:10:32;103555.06;;;-0.16;94.00
71770;BME280;66386;52.122;5.420;2023-02-14T08:12:59;103552.16;;;-0.08;93.95
71770;BME280;66386;52.122;5.420;2023-02-14T08:15:27;103549.91;;;-0.02;94.03
71770;BME280;66386;52.122;5.420;2023-02-14T08:18:13;103553.78;;;0.08;94.15
71770;BME280;66386;52.122;5.420;2023-02-14T08:20:40;103543.34;;;0.19;94.02
71770;BME280;66386;52.122;5.420;2023-02-14T08:23:07;103549.59;;;0.25;94.24
71770;BME280;66386;52.122;5.420;2023-02-14T08:25:33;103547.59;;;0.36;93.77
71770;BME280;66386;52.122;5.420;2023-02-14T08:28:01;103554.81;;;0.46;93.78
71770;BME280;66386;52.122;5.420;2023-02-14T08:30:28;103546.88;;;0.57;93.98
71770;BME280;66386;52.122;5.420;2023-02-14T08:32:55;103551.59;;;0.67;93.84
71770;BME280;66386;52.122;5.420;2023-02-14T08:35:21;103553.06;;;0.80;94.09
71770;BME280;66386;52.122;5.420;2023-02-14T08:37:51;103548.66;;;0.94;93.71
71770;BME280;66386;52.122;5.420;2023-02-14T08:40:17;103552.03;;;1.12;93.75
71770;BME280;66386;52.122;5.420;2023-02-14T08:42:45;103554.56;;;1.30;93.68
71770;BME280;66386;52.122;5.420;2023-02-14T08:45:11;103550.31;;;1.49;93.55
71770;BME280;66386;52.122;5.420;2023-02-14T08:47:38;103552.88;;;1.68;93.72
71770;BME280;66386;52.122;5.420;2023-02-14T08:50:10;103547.97;;;1.92;93.71
71770;BME280;66386;52.122;5.420;2023-02-14T08:52:40;103556.63;;;2.17;93.65
71770;BME280;66386;52.122;5.420;2023-02-14T08:55:10;103554.38;;;2.44;93.59
71770;BME280;66386;52.122;5.420;2023-02-14T08:57:37;103543.59;;;2.71;93.54
71770;BME280;66386;52.122;5.420;2023-02-14T09:00:05;103550.00;;;3.05;93.26
71770;BME280;66386;52.122;5.420;2023-02-14T09:02:32;103551.47;;;3.45;93.04
71770;BME280;66386;52.122;5.420;2023-02-14T09:04:58;103544.56;;;3.90;92.75
71770;BME280;66386;52.122;5.420;2023-02-14T09:07:26;103546.06;;;4.34;92.12
71770;BME280;66386;52.122;5.420;2023-02-14T09:09:52;103539.06;;;4.82;91.32
71770;BME280;66386;52.122;5.420;2023-02-14T09:12:19;103543.81;;;5.27;89.80
71770;BME280;66386;52.122;5.420;2023-02-14T09:14:45;103533.91;;;5.68;88.47
71770;BME280;66386;52.122;5.420;2023-02-14T09:17:13;103538.28;;;6.04;87.35
71770;BME280;66386;52.122;5.420;2023-02-14T09:19:41;103534.97;;;6.43;86.25
71770;BME280;66386;52.122;5.420;2023-02-14T09:22:09;103529.69;;;6.72;84.80
71770;BME280;66386;52.122;5.420;2023-02-14T09:24:37;103533.06;;;7.11;83.70
71770;BME280;66386;52.122;5.420;2023-02-14T09:27:04;103527.53;;;7.30;82.77
71770;BME280;66386;52.122;5.420;2023-02-14T09:29:32;103532.16;;;7.50;82.08
71770;BME280;66386;52.122;5.420;2023-02-14T09:32:00;103527.41;;;7.68;81.32
71770;BME280;66386;52.122;5.420;2023-02-14T09:34:27;103525.97;;;7.39;80.01
71770;BME280;66386;52.122;5.420;2023-02-14T09:37:15;103521.59;;;6.54;81.38
71770;BME280;66386;52.122;5.420;2023-02-14T09:39:41;103527.22;;;6.04;82.75
71770;BME280;66386;52.122;5.420;2023-02-14T09:45:28;103530.03;;;5.51;85.98
71770;BME280;66386;52.122;5.420;2023-02-14T09:48:25;103523.25;;;5.51;86.83
71770;BME280;66386;52.122;5.420;2023-02-14T09:51:03;103522.53;;;5.57;87.14
71770;BME280;66386;52.122;5.420;2023-02-14T09:53:35;103525.25;;;5.63;87.56
71770;BME280;66386;52.122;5.420;2023-02-14T09:56:26;103524.56;;;5.69;87.84
71770;BME280;66386;52.122;5.420;2023-02-14T09:59:16;103523.94;;;5.77;88.18
71770;BME280;66386;52.122;5.420;2023-02-14T10:01:50;103518.19;;;5.85;88.41
71770;BME280;66386;52.122;5.420;2023-02-14T10:04:27;103515.81;;;5.92;88.51
71770;BME280;66386;52.122;5.420;2023-02-14T10:07:10;103509.25;;;6.01;88.30
71770;BME280;66386;52.122;5.420;2023-02-14T10:09:49;103510.41;;;6.12;88.44
71770;BME280;66386;52.122;5.420;2023-02-14T10:12:29;103514.06;;;6.23;88.19
71770;BME280;66386;52.122;5.420;2023-02-14T10:14:59;103502.41;;;6.35;88.14
71770;BME280;66386;52.122;5.420;2023-02-14T10:17:34;103508.75;;;6.51;88.21
71770;BME280;66386;52.122;5.420;2023-02-14T10:20:09;103509.09;;;6.64;88.15
71770;BME280;66386;52.122;5.420;2023-02-14T10:22:45;103514.38;;;6.72;87.46
71770;BME280;66386;52.122;5.420;2023-02-14T10:25:33;103512.91;;;6.84;87.43
71770;BME280;66386;52.122;5.420;2023-02-14T10:28:03;103496.94;;;6.94;86.95
71770;BME280;66386;52.122;5.420;2023-02-14T10:30:37;103507.38;;;7.05;86.65
71770;BME280;66386;52.122;5.420;2023-02-14T10:33:29;103503.31;;;7.13;86.26
71770;BME280;66386;52.122;5.420;2023-02-14T10:36:17;103501.69;;;7.18;85.93
71770;BME280;66386;52.122;5.420;2023-02-14T10:39:29;103500.16;;;7.26;85.61
71770;BME280;66386;52.122;5.420;2023-02-14T10:47:25;103505.13;;;7.63;84.92
71770;BME280;66386;52.122;5.420;2023-02-14T10:50:05;103499.22;;;7.67;84.48
71770;BME280;66386;52.122;5.420;2023-02-14T10:53:27;103495.19;;;7.80;84.62
71770;BME280;66386;52.122;5.420;2023-02-14T10:55:45;103495.31;;;7.88;84.04
71770;BME280;66386;52.122;5.420;2023-02-14T10:58:16;103496.16;;;7.86;83.38
71770;BME280;66386;52.122;5.420;2023-02-14T11:00:58;103497.91;;;7.89;83.28
71770;BME280;66386;52.122;5.420;2023-02-14T11:03:27;103495.41;;;7.94;83.25
71770;BME280;66386;52.122;5.420;2023-02-14T11:05:57;103491.16;;;7.94;82.94
71770;BME280;66386;52.122;5.420;2023-02-14T11:08:36;103489.59;;;8.02;82.87
71770;BME280;66386;52.122;5.420;2023-02-14T11:13:44;103485.81;;;8.34;82.00
71770;BME280;66386;52.122;5.420;2023-02-14T11:16:33;103475.63;;;8.37;81.78
71770;BME280;66386;52.122;5.420;2023-02-14T11:21:49;103473.34;;;8.57;81.43
71770;BME280;66386;52.122;5.420;2023-02-14T11:24:17;103470.88;;;8.62;80.94
71770;BME280;66386;52.122;5.420;2023-02-14T11:26:46;103468.41;;;8.69;80.28
71770;BME280;66386;52.122;5.420;2023-02-14T11:29:15;103463.38;;;8.77;80.04
71770;BME280;66386;52.122;5.420;2023-02-14T11:31:49;103458.31;;;8.82;79.93
71770;BME280;66386;52.122;5.420;2023-02-14T11:34:33;103463.53;;;8.88;78.91
71770;BME280;66386;52.122;5.420;2023-02-14T11:37:03;103457.56;;;8.92;78.81
71770;BME280;66386;52.122;5.420;2023-02-14T11:39:41;103450.78;;;8.96;78.54
71770;BME280;66386;52.122;5.420;2023-02-14T11:42:11;103448.25;;;8.97;78.14
71770;BME280;66386;52.122;5.420;2023-02-14T11:44:53;103446.56;;;9.01;78.02
71770;BME280;66386;52.122;5.420;2023-02-14T11:47:33;103443.19;;;9.03;77.62
71770;BME280;66386;52.122;5.420;2023-02-14T11:50:20;103439.78;;;9.06;77.86
71770;BME280;66386;52.122;5.420;2023-02-14T11:52:54;103441.50;;;9.05;77.72
71770;BME280;66386;52.122;5.420;2023-02-14T11:55:27;103429.56;;;9.11;77.07
71770;BME280;66386;52.122;5.420;2023-02-14T11:57:55;103434.72;;;9.11;77.47
71770;BME280;66386;52.122;5.420;2023-02-14T12:00:23;103428.72;;;9.10;77.42
71770;BME280;66386;52.122;5.420;2023-02-14T12:02:53;103427.00;;;9.09;77.25
71770;BME280;66386;52.122;5.420;2023-02-14T12:05:27;103415.09;;;9.13;77.26
71770;BME280;66386;52.122;5.420;2023-02-14T12:07:56;103410.00;;;9.19;76.96
71770;BME280;66386;52.122;5.420;2023-02-14T12:10:29;103407.47;;;9.22;76.34
71770;BME280;66386;52.122;5.420;2023-02-14T12:21:11;103407.56;;;9.31;75.34
71770;BME280;66386;52.122;5.420;2023-02-14T12:26:49;103398.25;;;9.41;74.37
71770;BME280;66386;52.122;5.420;2023-02-14T12:29:25;103391.38;;;9.40;74.64
71770;BME280;66386;52.122;5.420;2023-02-14T12:31:54;103393.16;;;9.46;74.50
71770;BME280;66386;52.122;5.420;2023-02-14T12:34:21;103392.34;;;9.50;74.55
71770;BME280;66386;52.122;5.420;2023-02-14T12:40:11;103382.03;;;9.47;74.38
71770;BME280;66386;52.122;5.420;2023-02-14T12:54:12;103358.97;;;9.53;73.00
71770;BME280;66386;52.122;5.420;2023-02-14T12:57:02;103356.47;;;9.64;72.93
71770;BME280;66386;52.122;5.420;2023-02-14T12:59:38;103353.13;;;9.72;72.50
71770;BME280;66386;52.122;5.420;2023-02-14T13:08:04;103348.91;;;9.79;71.92
71770;BME280;66386;52.122;5.420;2023-02-14T13:10:51;103336.97;;;9.86;72.07
71770;BME280;66386;52.122;5.420;2023-02-14T13:16:07;103333.59;;;9.96;71.63
71770;BME280;66386;52.122;5.420;2023-02-14T13:21:19;103318.22;;;10.01;71.22
71770;BME280;66386;52.122;5.420;2023-02-14T13:23:48;103313.94;;;10.04;71.41
71770;BME280;66386;52.122;5.420;2023-02-14T13:26:21;103315.66;;;10.05;71.08
71770;BME280;66386;52.122;5.420;2023-02-14T13:29:01;103302.81;;;10.05;71.28
71770;BME280;66386;52.122;5.420;2023-02-14T13:31:29;103312.28;;;10.11;70.80
71770;BME280;66386;52.122;5.420;2023-02-14T13:34:01;103307.97;;;10.08;70.95
71770;BME280;66386;52.122;5.420;2023-02-14T13:36:29;103302.84;;;10.11;71.15
71770;BME280;66386;52.122;5.420;2023-02-14T13:38:58;103308.81;;;10.04;71.01
71770;BME280;66386;52.122;5.420;2023-02-14T13:41:26;103301.97;;;10.02;71.29
71770;BME280;66386;52.122;5.420;2023-02-14T13:43:58;103306.22;;;10.03;71.38
71770;BME280;66386;52.122;5.420;2023-02-14T13:46:48;103303.66;;;10.01;71.03
71770;BME280;66386;52.122;5.420;2023-02-14T13:49:30;103301.97;;;10.02;71.22
71770;BME280;66386;52.122;5.420;2023-02-14T13:52:00;103295.09;;;9.98;71.33
71770;BME280;66386;52.122;5.420;2023-02-14T13:54:32;103292.53;;;9.99;71.06
71770;BME280;66386;52.122;5.420;2023-02-14T13:57:03;103289.94;;;9.98;70.41
71770;BME280;66386;52.122;5.420;2023-02-14T14:02:47;103292.50;;;9.96;70.56
71770;BME280;66386;52.122;5.420;2023-02-14T14:10:57;103277.94;;;9.98;70.09
71770;BME280;66386;52.122;5.420;2023-02-14T14:16:33;103270.25;;;9.98;70.26
71770;BME280;66386;52.122;5.420;2023-02-14T14:21:38;103273.63;;;9.92;70.17
71770;BME280;66386;52.122;5.420;2023-02-14T14:24:23;103273.63;;;9.88;70.18
71770;BME280;66386;52.122;5.420;2023-02-14T14:26:59;103272.78;;;9.93;70.34
71770;BME280;66386;52.122;5.420;2023-02-14T14:31:56;103261.59;;;9.85;70.90
71770;BME280;66386;52.122;5.420;2023-02-14T14:34:26;103263.34;;;9.88;70.60
71770;BME280;66386;52.122;5.420;2023-02-14T14:37:03;103265.91;;;9.91;70.91
71770;BME280;66386;52.122;5.420;2023-02-14T14:39:33;103271.06;;;9.91;70.25
71770;BME280;66386;52.122;5.420;2023-02-14T14:42:14;103271.06;;;9.91;70.57
71770;BME280;66386;52.122;5.420;2023-02-14T14:44:57;103274.44;;;9.85;70.67
71770;BME280;66386;52.122;5.420;2023-02-14T14:47:27;103262.44;;;9.83;70.69
71770;BME280;66386;52.122;5.420;2023-02-14T14:50:05;103265.00;;;9.79;71.01
71770;BME280;66386;52.122;5.420;2023-02-14T14:52:35;103267.56;;;9.81;70.91
71770;BME280;66386;52.122;5.420;2023-02-14T14:55:05;103266.72;;;9.77;70.79
71770;BME280;66386;52.122;5.420;2023-02-14T14:57:34;103264.16;;;9.79;70.84
71770;BME280;66386;52.122;5.420;2023-02-14T15:00:28;103258.16;;;9.78;70.55
71770;BME280;66386;52.122;5.420;2023-02-14T15:03:13;103255.59;;;9.78;70.72
71770;BME280;66386;52.122;5.420;2023-02-14T15:05:46;103258.16;;;9.75;70.66
71770;BME280;66386;52.122;5.420;2023-02-14T15:11:06;103257.28;;;9.75;70.93